createdAt,value
2019-05-05T00:00:04.735Z,4.47
2019-05-05T00:01:17.333Z,4.47
2019-05-05T00:02:04.429Z,4.33
2019-05-05T00:03:04.251Z,4.33
2019-05-05T00:04:17.380Z,4.37
2019-05-05T00:05:04.740Z,4.41
2019-05-05T00:06:02.747Z,4.4
2019-05-05T00:07:04.379Z,4.27
2019-05-05T00:08:04.678Z,4.24
2019-05-05T00:09:02.801Z,4.26
2019-05-05T00:10:04.561Z,4.22
2019-05-05T00:11:04.926Z,4.24
2019-05-05T00:12:02.839Z,4.24
2019-05-05T00:14:04.637Z,4.12
2019-05-05T00:15:05.103Z,4.12
2019-05-05T00:16:17.662Z,4.11
2019-05-05T00:17:04.814Z,4.16
2019-05-05T00:18:02.931Z,4
2019-05-05T00:19:04.742Z,4.15
2019-05-05T00:20:17.624Z,4
2019-05-05T00:21:04.576Z,4.09
2019-05-05T00:22:04.517Z,4.06
2019-05-05T00:23:05.122Z,4.09
2019-05-05T00:24:04.612Z,4.08
2019-05-05T00:25:04.870Z,4
2019-05-05T00:26:04.351Z,4.06
2019-05-05T00:27:04.268Z,4.02
2019-05-05T00:28:04.985Z,4
2019-05-05T00:29:04.339Z,3.98
2019-05-05T00:30:05.208Z,4
2019-05-05T00:31:04.639Z,4
2019-05-05T00:32:17.807Z,4
2019-05-05T00:33:05.310Z,3.93
2019-05-05T00:34:04.971Z,3.83
2019-05-05T00:35:17.852Z,3.79
2019-05-05T00:36:05.406Z,3.83
2019-05-05T00:37:04.590Z,3.88
2019-05-05T00:38:05.020Z,3.87
2019-05-05T00:39:04.292Z,3.86
2019-05-05T00:40:04.946Z,3.84
2019-05-05T00:41:05.231Z,3.8
2019-05-05T00:42:04.750Z,3.84
2019-05-05T00:43:05.257Z,3.84
2019-05-05T00:44:04.718Z,3.86
2019-05-05T00:47:05.109Z,3.7
2019-05-05T00:48:04.651Z,3.83
2019-05-05T00:49:05.238Z,3.79
2019-05-05T00:50:05.269Z,3.83
2019-05-05T00:51:04.617Z,3.78
2019-05-05T00:52:05.047Z,3.78
2019-05-05T00:53:05.340Z,3.79
2019-05-05T00:54:04.355Z,3.78
2019-05-05T00:55:04.568Z,3.79
2019-05-05T00:56:05.079Z,3.73
2019-05-05T00:57:04.408Z,3.68
2019-05-05T00:58:05.210Z,3.76
2019-05-05T00:59:04.552Z,3.75
2019-05-05T01:00:05.045Z,3.72
2019-05-05T01:01:05.277Z,3.72
2019-05-05T01:02:18.265Z,3.61
2019-05-05T01:03:04.726Z,3.62
2019-05-05T01:04:05.202Z,3.58
2019-05-05T01:05:04.476Z,3.58
2019-05-05T01:06:04.517Z,3.68
2019-05-05T01:07:18.337Z,3.62
2019-05-05T01:08:05.179Z,3.66
2019-05-05T01:10:04.909Z,3.6
2019-05-05T01:11:04.210Z,3.66
2019-05-05T01:13:04.698Z,3.62
2019-05-05T01:14:05.043Z,3.62
2019-05-05T01:15:04.583Z,3.58
2019-05-05T01:17:05.231Z,3.5
2019-05-05T01:18:07.178Z,3.47
2019-05-05T01:19:04.469Z,3.51
2019-05-05T01:20:09.463Z,3.55
2019-05-05T01:21:18.544Z,3.55
2019-05-05T01:22:04.920Z,3.52
2019-05-05T01:23:18.325Z,3.45
2019-05-05T01:24:05.080Z,3.47
2019-05-05T01:25:05.368Z,3.52
2019-05-05T01:26:05.012Z,3.47
2019-05-05T01:27:04.288Z,3.5
2019-05-05T01:28:04.964Z,3.5
2019-05-05T01:29:05.274Z,3.48
2019-05-05T01:30:04.763Z,3.45
2019-05-05T01:31:05.576Z,3.45
2019-05-05T01:32:05.009Z,3.33
2019-05-05T01:33:05.446Z,3.36
2019-05-05T01:34:04.806Z,3.33
2019-05-05T01:35:05.355Z,3.32
2019-05-05T01:36:04.618Z,3.29
2019-05-05T01:37:04.865Z,3.36
2019-05-05T01:38:04.862Z,3.32
2019-05-05T01:39:18.817Z,3.33
2019-05-05T01:40:04.929Z,3.32
2019-05-05T01:41:04.325Z,3.28
2019-05-05T01:42:04.867Z,3.24
2019-05-05T01:43:05.281Z,3.2
2019-05-05T01:44:04.795Z,3.2
2019-05-05T01:45:04.582Z,3.17
2019-05-05T01:46:05.011Z,3.13
2019-05-05T01:47:05.312Z,3.17
2019-05-05T01:48:04.864Z,3.21
2019-05-05T01:49:05.311Z,3.13
2019-05-05T01:50:21.278Z,3.2
2019-05-05T01:51:18.991Z,3.23
2019-05-05T01:52:06.748Z,3.18
2019-05-05T01:53:04.795Z,3.18
2019-05-05T01:54:05.138Z,3.1
2019-05-05T01:55:18.803Z,3.2
2019-05-05T01:56:04.919Z,3.13
2019-05-05T01:57:05.405Z,3.08
2019-05-05T01:58:04.783Z,3.15
2019-05-05T01:59:05.114Z,3
2019-05-05T02:00:06.634Z,3.08
2019-05-05T02:01:04.975Z,3.03
2019-05-05T02:02:06.708Z,3.06
2019-05-05T02:03:04.672Z,2.96
2019-05-05T02:04:05.471Z,3
2019-05-05T02:05:06.898Z,3.06
2019-05-05T02:06:05.198Z,3.03
2019-05-05T02:07:05.397Z,2.95
2019-05-05T02:08:05.026Z,3
2019-05-05T02:09:05.256Z,2.96
2019-05-05T02:10:19.034Z,2.95
2019-05-05T02:11:05.261Z,2.9
2019-05-05T02:12:05.214Z,2.89
2019-05-05T02:13:06.934Z,2.95
2019-05-05T02:14:05.154Z,2.97
2019-05-05T02:15:06.632Z,2.96
2019-05-05T02:16:06.929Z,2.93
2019-05-05T02:17:05.115Z,2.99
2019-05-05T02:18:06.849Z,3.08
2019-05-05T02:19:19.408Z,3.03
2019-05-05T02:20:05.312Z,3
2019-05-05T02:21:05.072Z,3.1
2019-05-05T02:22:05.365Z,3.08
2019-05-05T02:23:19.462Z,3
2019-05-05T02:24:05.271Z,2.95
2019-05-05T02:25:06.671Z,2.93
2019-05-05T02:27:05.218Z,2.95
2019-05-05T02:29:07.245Z,2.93
2019-05-05T02:30:08.580Z,2.9
2019-05-05T02:31:07.989Z,2.79
2019-05-05T02:32:08.518Z,2.92
2019-05-05T02:33:06.233Z,2.79
2019-05-05T02:34:07.799Z,2.92
2019-05-05T02:35:06.354Z,2.92
2019-05-05T02:36:07.959Z,2.9
2019-05-05T02:37:07.790Z,2.99
2019-05-05T02:38:06.434Z,2.95
2019-05-05T02:39:07.728Z,2.99
2019-05-05T02:40:11.823Z,2.92
2019-05-05T02:41:19.743Z,2.93
2019-05-05T02:42:19.845Z,2.99
2019-05-05T02:43:07.885Z,2.97
2019-05-05T02:44:07.319Z,2.9
2019-05-05T02:45:08.042Z,2.87
2019-05-05T02:46:07.852Z,2.95
2019-05-05T02:47:07.230Z,2.92
2019-05-05T02:48:19.843Z,2.82
2019-05-05T02:49:07.873Z,2.85
2019-05-05T02:50:07.698Z,2.81
2019-05-05T02:51:09.610Z,2.84
2019-05-05T02:52:07.452Z,2.84
2019-05-05T02:53:06.546Z,2.84
2019-05-05T02:54:06.900Z,2.87
2019-05-05T02:55:06.562Z,2.89
2019-05-05T02:57:07.069Z,2.81
2019-05-05T02:58:19.974Z,2.78
2019-05-05T03:00:06.914Z,2.75
2019-05-05T03:01:07.351Z,2.75
2019-05-05T03:02:06.748Z,2.74
2019-05-05T03:03:06.849Z,2.77
2019-05-05T03:04:06.227Z,2.72
2019-05-05T03:05:06.643Z,2.74
2019-05-05T03:06:20.094Z,2.69
2019-05-05T03:07:07.194Z,2.74
2019-05-05T03:08:07.266Z,2.64
2019-05-05T03:09:06.898Z,2.74
2019-05-05T03:10:06.192Z,2.71
2019-05-05T03:11:06.330Z,2.6
2019-05-05T03:12:07.219Z,2.63
2019-05-05T03:13:07.317Z,2.56
2019-05-05T03:14:20.206Z,2.64
2019-05-05T03:15:06.641Z,2.57
2019-05-05T03:16:06.231Z,2.57
2019-05-05T03:17:06.626Z,2.53
2019-05-05T03:18:06.620Z,2.53
2019-05-05T03:19:06.011Z,2.42
2019-05-05T03:20:06.554Z,2.42
2019-05-05T03:21:13.809Z,2.39
2019-05-05T03:22:06.112Z,2.35
2019-05-05T03:23:06.415Z,2.45
2019-05-05T03:24:06.204Z,2.36
2019-05-05T03:25:07.094Z,2.46
2019-05-05T03:26:06.359Z,2.38
2019-05-05T03:27:20.392Z,2.36
2019-05-05T03:28:06.866Z,2.43
2019-05-05T03:29:07.206Z,2.3
2019-05-05T03:30:20.460Z,2.3
2019-05-05T03:31:07.502Z,2.34
2019-05-05T03:32:11.389Z,2.39
2019-05-05T03:33:07.976Z,2.36
2019-05-05T03:34:08.650Z,2.35
2019-05-05T03:35:06.718Z,2.46
2019-05-05T03:37:06.659Z,2.46
2019-05-05T03:38:06.352Z,2.52
2019-05-05T03:39:20.570Z,2.41
2019-05-05T03:40:06.747Z,2.53
2019-05-05T03:41:06.050Z,2.57
2019-05-05T03:42:20.609Z,2.45
2019-05-05T03:43:20.623Z,2.52
2019-05-05T03:45:20.653Z,2.64
2019-05-05T03:47:08.322Z,2.59
2019-05-05T03:48:07.088Z,2.74
2019-05-05T03:49:07.247Z,2.63
2019-05-05T03:50:06.800Z,2.78
2019-05-05T03:51:21.154Z,2.69
2019-05-05T03:52:07.306Z,2.69
2019-05-05T03:53:07.396Z,2.77
2019-05-05T03:54:06.899Z,2.84
2019-05-05T03:56:06.375Z,2.79
2019-05-05T03:57:08.279Z,2.81
2019-05-05T03:58:06.595Z,2.74
2019-05-05T04:01:06.713Z,2.77
2019-05-05T04:02:06.467Z,2.74
2019-05-05T04:03:06.759Z,2.89
2019-05-05T04:04:08.148Z,2.95
2019-05-05T04:05:06.490Z,2.93
2019-05-05T04:06:06.843Z,2.93
2019-05-05T04:07:07.206Z,3
2019-05-05T04:08:08.685Z,3
2019-05-05T04:09:06.723Z,3.06
2019-05-05T04:10:08.450Z,3.03
2019-05-05T04:11:08.645Z,3.13
2019-05-05T04:12:06.958Z,3.05
2019-05-05T04:13:07.133Z,3.1
2019-05-05T04:14:08.397Z,3.05
2019-05-05T04:15:08.431Z,3.13
2019-05-05T04:16:06.499Z,3.18
2019-05-05T04:17:21.115Z,3.14
2019-05-05T04:18:08.732Z,3.11
2019-05-05T04:19:08.420Z,3.2
2019-05-05T04:20:08.545Z,3.15
2019-05-05T04:21:08.749Z,3.2
2019-05-05T04:22:06.762Z,3.2
2019-05-05T04:23:08.587Z,3.17
2019-05-05T04:24:08.768Z,3.2
2019-05-05T04:25:07.087Z,3.23
2019-05-05T04:26:08.614Z,3.31
2019-05-05T04:27:08.850Z,3.29
2019-05-05T04:28:08.506Z,3.28
2019-05-05T04:29:09.922Z,3.33
2019-05-05T04:30:08.553Z,3.45
2019-05-05T04:31:08.968Z,3.51
2019-05-05T04:32:07.163Z,3.52
2019-05-05T04:33:23.446Z,3.55
2019-05-05T04:34:08.952Z,3.54
2019-05-05T04:35:08.475Z,3.61
2019-05-05T04:36:08.704Z,3.75
2019-05-05T04:37:08.845Z,3.75
2019-05-05T04:39:08.559Z,3.73
2019-05-05T04:40:08.888Z,3.76
2019-05-05T04:41:08.338Z,3.69
2019-05-05T04:42:07.312Z,3.84
2019-05-05T04:43:08.723Z,3.87
2019-05-05T04:44:08.790Z,3.9
2019-05-05T04:45:08.969Z,3.9
2019-05-05T04:46:06.984Z,3.87
2019-05-05T04:47:08.685Z,4.04
2019-05-05T04:48:24.235Z,4
2019-05-05T04:49:23.294Z,4.22
2019-05-05T04:50:08.810Z,4.6
2019-05-05T04:51:07.211Z,5.54
2019-05-05T04:52:08.929Z,6.15
2019-05-05T04:53:09.310Z,7.37
2019-05-05T04:55:08.687Z,8.99
2019-05-05T04:57:09.247Z,10.55
2019-05-05T04:58:09.381Z,10.41
2019-05-05T05:00:08.935Z,11.4
2019-05-05T05:01:09.436Z,11.83
2019-05-05T05:02:08.841Z,12.34
2019-05-05T05:03:09.246Z,12.19
2019-05-05T05:04:08.529Z,12.71
2019-05-05T05:05:21.885Z,13.19
2019-05-05T05:06:08.944Z,13.63
2019-05-05T05:07:09.348Z,14.15
2019-05-05T05:08:08.572Z,13.91
2019-05-05T05:09:08.850Z,14.15
2019-05-05T05:10:24.148Z,14.52
2019-05-05T05:11:08.497Z,14.6
2019-05-05T05:12:08.849Z,14.75
2019-05-05T05:13:09.400Z,14.73
2019-05-05T05:16:09.347Z,15.2
2019-05-05T05:17:08.312Z,15.56
2019-05-05T05:18:08.933Z,16.35
2019-05-05T05:19:09.126Z,16.27
2019-05-05T05:20:24.454Z,15.34
2019-05-05T05:21:08.818Z,15.47
2019-05-05T05:22:09.823Z,15.53
2019-05-05T05:23:08.469Z,14.68
2019-05-05T05:24:08.842Z,14.51
2019-05-05T05:25:09.309Z,14.8
2019-05-05T05:26:09.814Z,14.61
2019-05-05T05:27:09.852Z,15.29
2019-05-05T05:28:09.035Z,16.04
2019-05-05T05:29:09.354Z,16.68
2019-05-05T05:30:09.510Z,16.71
2019-05-05T05:31:08.759Z,16.83
2019-05-05T05:32:09.003Z,17.4
2019-05-05T05:33:09.188Z,17.71
2019-05-05T05:34:09.199Z,17.21
2019-05-05T05:35:08.564Z,17.78
2019-05-05T05:36:08.840Z,18.15
2019-05-05T05:38:09.513Z,18.47
2019-05-05T05:40:23.693Z,15.56
2019-05-05T05:41:09.078Z,15.71
2019-05-05T05:42:24.181Z,15.44
2019-05-05T05:43:09.470Z,16.31
2019-05-05T05:44:08.462Z,16.3
2019-05-05T05:45:08.885Z,16.07
2019-05-05T05:46:09.231Z,15.87
2019-05-05T05:47:08.487Z,15.27
2019-05-05T05:48:08.958Z,15.97
2019-05-05T05:49:09.408Z,16.53
2019-05-05T05:50:08.920Z,16.14
2019-05-05T05:51:09.066Z,16.41
2019-05-05T05:52:24.205Z,16.94
2019-05-05T05:53:09.579Z,17.19
2019-05-05T05:54:08.653Z,16.93
2019-05-05T05:55:08.940Z,16.85
2019-05-05T05:56:09.210Z,17.26
2019-05-05T05:57:09.180Z,18.14
2019-05-05T05:58:09.638Z,18.73
2019-05-05T06:00:08.919Z,18.51
2019-05-05T06:01:09.195Z,18.66
2019-05-05T06:02:18.066Z,18.42
2019-05-05T06:03:08.890Z,18.52
2019-05-05T06:04:08.962Z,18.44
2019-05-05T06:05:23.951Z,18.58
2019-05-05T06:06:09.339Z,18.92
2019-05-05T06:07:09.007Z,18.03
2019-05-05T06:08:24.245Z,17.89
2019-05-05T06:09:09.147Z,18.07
2019-05-05T06:10:21.298Z,18.26
2019-05-05T06:11:09.384Z,18.75
2019-05-05T06:12:09.047Z,18.7
2019-05-05T06:13:08.878Z,18.73
2019-05-05T06:15:09.133Z,18.94
2019-05-05T06:16:09.296Z,17.75
2019-05-05T06:17:09.209Z,17.26
2019-05-05T06:18:09.614Z,17.38
2019-05-05T06:19:10.341Z,17.16
2019-05-05T06:20:23.989Z,17.82
2019-05-05T06:21:09.514Z,18.5
2019-05-05T06:22:09.446Z,18.39
2019-05-05T06:23:09.134Z,17.62
2019-05-05T06:24:26.392Z,17.14
2019-05-05T06:25:15.461Z,17.23
2019-05-05T06:26:14.875Z,17.56
2019-05-05T06:27:09.506Z,17.36
2019-05-05T06:28:09.543Z,17.75
2019-05-05T06:29:09.566Z,18.45
2019-05-05T06:30:09.354Z,19.07
2019-05-05T06:31:09.629Z,18.95
2019-05-05T06:32:09.676Z,18.45
2019-05-05T06:33:09.822Z,17.49
2019-05-05T06:34:09.720Z,17.37
2019-05-05T06:35:09.500Z,18.08
2019-05-05T06:36:24.447Z,18.47
2019-05-05T06:37:09.814Z,18.39
2019-05-05T06:38:09.844Z,18.63
2019-05-05T06:39:09.876Z,18.78
2019-05-05T06:40:25.774Z,19.77
2019-05-05T06:41:09.936Z,20.05
2019-05-05T06:42:09.977Z,19.88
2019-05-05T06:43:10.001Z,18.17
2019-05-05T06:44:10.030Z,17.93
2019-05-05T06:45:10.062Z,18.41
2019-05-05T06:46:10.095Z,18.33
2019-05-05T06:47:10.125Z,18.39
2019-05-05T06:48:10.226Z,19.21
2019-05-05T06:51:10.250Z,19.47
2019-05-05T06:52:10.282Z,19.96
2019-05-05T06:53:10.324Z,20.43
2019-05-05T06:54:10.348Z,19.48
2019-05-05T06:55:26.885Z,19.61
2019-05-05T06:56:10.462Z,19.59
2019-05-05T06:57:10.443Z,18.94
2019-05-05T06:58:10.473Z,18.65
2019-05-05T06:59:10.513Z,18.41
2019-05-05T07:00:10.538Z,18.63
2019-05-05T07:01:10.568Z,19.39
2019-05-05T07:02:10.602Z,19.94
2019-05-05T07:04:10.670Z,20.2
2019-05-05T07:05:10.747Z,20.66
2019-05-05T07:06:10.733Z,20.61
2019-05-05T07:07:10.519Z,18.69
2019-05-05T07:08:25.495Z,17.95
2019-05-05T07:09:10.824Z,17.72
2019-05-05T07:10:10.856Z,18.15
2019-05-05T07:11:11.155Z,18.41
2019-05-05T07:12:10.670Z,17.62
2019-05-05T07:13:10.952Z,17.26
2019-05-05T07:14:10.983Z,17.12
2019-05-05T07:15:11.019Z,17.41
2019-05-05T07:16:12.764Z,17.93
2019-05-05T07:17:25.496Z,17.97
2019-05-05T07:18:11.110Z,17.56
2019-05-05T07:19:11.142Z,17.54
2019-05-05T07:20:13.368Z,17.54
2019-05-05T07:21:11.214Z,18.32
2019-05-05T07:22:10.989Z,17.68
2019-05-05T07:23:11.295Z,18.29
2019-05-05T07:24:11.301Z,18.12
2019-05-05T07:25:13.546Z,18.3
2019-05-05T07:26:11.362Z,18.2
2019-05-05T07:27:26.817Z,18.3
2019-05-05T07:28:11.426Z,18.9
2019-05-05T07:29:11.462Z,18.9
2019-05-05T07:30:13.512Z,18.54
2019-05-05T07:32:11.559Z,19.06
2019-05-05T07:33:11.584Z,19.95
2019-05-05T07:34:13.501Z,20.35
2019-05-05T07:35:11.650Z,19.48
2019-05-05T07:36:11.679Z,18.91
2019-05-05T07:37:11.716Z,18.8
2019-05-05T07:38:13.770Z,18.44
2019-05-05T07:39:11.777Z,17.81
2019-05-05T07:40:26.470Z,18.07
2019-05-05T07:41:13.955Z,18.6
2019-05-05T07:42:13.695Z,18.78
2019-05-05T07:43:26.564Z,18.45
2019-05-05T07:44:29.634Z,17.99
2019-05-05T07:46:13.514Z,18.44
2019-05-05T07:47:12.025Z,18.29
2019-05-05T07:48:13.806Z,17.79
2019-05-05T07:49:13.837Z,18.26
2019-05-05T07:50:35.731Z,18.05
2019-05-05T07:51:14.096Z,18.08
2019-05-05T07:52:14.883Z,18.2
2019-05-05T07:53:20.400Z,18.82
2019-05-05T07:54:14.229Z,18.87
2019-05-05T07:55:14.147Z,18.65
2019-05-05T07:56:14.428Z,18.76
2019-05-05T07:57:12.093Z,18.91
2019-05-05T07:58:13.861Z,17.84
2019-05-05T07:59:27.068Z,17.89
2019-05-05T08:00:14.554Z,17.96
2019-05-05T08:01:14.054Z,18.51
2019-05-05T08:02:14.312Z,18.94
2019-05-05T08:03:14.332Z,18.92
2019-05-05T08:04:13.650Z,19.5
2019-05-05T08:05:14.064Z,20.33
2019-05-05T08:06:14.470Z,21.09
2019-05-05T08:07:14.482Z,21.53
2019-05-05T08:08:13.867Z,21.07
2019-05-05T08:09:14.574Z,20.72
2019-05-05T08:10:13.639Z,20.29
2019-05-05T08:11:27.446Z,20.8
2019-05-05T08:12:13.684Z,20.91
2019-05-05T08:13:14.040Z,20.84
2019-05-05T08:14:14.534Z,20.52
2019-05-05T08:15:27.555Z,19.78
2019-05-05T08:16:14.070Z,19.91
2019-05-05T08:17:14.562Z,20.23
2019-05-05T08:18:13.849Z,19.18
2019-05-05T08:19:13.752Z,19.4
2019-05-05T08:20:27.717Z,18.82
2019-05-05T08:23:28.155Z,17.74
2019-05-05T08:24:13.934Z,17.78
2019-05-05T08:26:13.754Z,18.41
2019-05-05T08:27:14.411Z,18.82
2019-05-05T08:28:14.679Z,18.9
2019-05-05T08:29:13.668Z,19.13
2019-05-05T08:30:28.006Z,19.19
2019-05-05T08:31:14.439Z,19.32
2019-05-05T08:32:13.626Z,19.26
2019-05-05T08:33:14.032Z,19.5
2019-05-05T08:34:14.220Z,18.87
2019-05-05T08:36:14.661Z,18.07
2019-05-05T08:37:14.594Z,17.71
2019-05-05T08:38:13.841Z,17.15
2019-05-05T08:40:14.758Z,15.57
2019-05-05T08:41:13.924Z,14.94
2019-05-05T08:42:14.381Z,14.77
2019-05-05T08:43:16.239Z,15.51
2019-05-05T08:44:14.584Z,15.67
2019-05-05T08:45:16.185Z,15.19
2019-05-05T08:46:14.415Z,15.23
2019-05-05T08:47:14.002Z,15.56
2019-05-05T08:48:14.286Z,15.43
2019-05-05T08:49:16.108Z,15.49
2019-05-05T08:50:16.045Z,15.89
2019-05-05T08:51:14.217Z,16.82
2019-05-05T08:52:14.568Z,17.59
2019-05-05T08:53:16.188Z,17.78
2019-05-05T08:54:14.379Z,17.28
2019-05-05T08:55:16.344Z,18.3
2019-05-05T08:56:14.568Z,18.95
2019-05-05T08:57:14.621Z,18.91
2019-05-05T08:58:14.843Z,18.87
2019-05-05T09:00:16.239Z,17.84
2019-05-05T09:01:14.901Z,16.85
2019-05-05T09:02:28.890Z,15.82
2019-05-05T09:03:16.349Z,16.23
2019-05-05T09:04:16.570Z,17.07
2019-05-05T09:05:14.540Z,18.07
2019-05-05T09:06:16.289Z,18.85
2019-05-05T09:07:28.763Z,17.58
2019-05-05T09:08:16.271Z,17.51
2019-05-05T09:09:16.781Z,17.33
2019-05-05T09:10:16.617Z,16.78
2019-05-05T09:11:16.465Z,16.45
2019-05-05T09:12:16.403Z,17.06
2019-05-05T09:13:16.635Z,17.33
2019-05-05T09:14:15.002Z,17.84
2019-05-05T09:15:29.222Z,18.57
2019-05-05T09:16:16.829Z,19.26
2019-05-05T09:17:16.134Z,19.95
2019-05-05T09:18:29.301Z,19.77
2019-05-05T09:19:16.991Z,19.61
2019-05-05T09:20:16.108Z,19.54
2019-05-05T09:21:16.079Z,19.76
2019-05-05T09:23:17.090Z,19.21
2019-05-05T09:24:16.750Z,19.92
2019-05-05T09:25:16.126Z,20.39
2019-05-05T09:26:16.224Z,20.03
2019-05-05T09:28:17.112Z,19.99
2019-05-05T09:29:16.180Z,19.59
2019-05-05T09:30:29.624Z,19.29
2019-05-05T09:31:16.999Z,18.2
2019-05-05T09:32:16.383Z,17.07
2019-05-05T09:34:29.733Z,16.12
2019-05-05T09:35:16.326Z,15.94
2019-05-05T09:36:16.357Z,16.24
2019-05-05T09:37:16.839Z,16.17
2019-05-05T09:38:17.165Z,15.78
2019-05-05T09:39:16.313Z,15.74
2019-05-05T09:40:16.332Z,15.97
2019-05-05T09:41:16.790Z,16.56
2019-05-05T09:42:17.001Z,17.66
2019-05-05T09:43:17.297Z,17.93
2019-05-05T09:44:16.034Z,18.27
2019-05-05T09:45:16.492Z,18.07
2019-05-05T09:46:16.823Z,18.7
2019-05-05T09:47:16.134Z,18.36
2019-05-05T09:49:16.521Z,19.02
2019-05-05T09:50:30.143Z,19.32
2019-05-05T09:51:16.116Z,18.41
2019-05-05T09:52:16.473Z,17.34
2019-05-05T09:53:17.044Z,17.06
2019-05-05T09:54:19.920Z,16.33
2019-05-05T09:55:16.299Z,16.42
2019-05-05T09:56:17.021Z,16.28
2019-05-05T09:57:17.006Z,15.87
2019-05-05T09:58:16.280Z,15.2
2019-05-05T09:59:16.032Z,15.03
2019-05-05T10:00:16.418Z,14.83
2019-05-05T10:01:30.423Z,14.51
2019-05-05T10:02:15.530Z,14.58
2019-05-05T10:03:16.989Z,14.8
2019-05-05T10:04:16.345Z,14.69
2019-05-05T10:05:30.520Z,14.89
2019-05-05T10:06:16.744Z,14.99
2019-05-05T10:07:16.240Z,15.11
2019-05-05T10:08:16.755Z,15.39
2019-05-05T10:10:16.338Z,15.09
2019-05-05T10:11:18.865Z,15.1
2019-05-05T10:12:15.575Z,15.46
2019-05-05T10:13:17.407Z,15.74
2019-05-05T10:14:16.815Z,15.87
2019-05-05T10:15:18.629Z,15.9
2019-05-05T10:16:16.780Z,16.45
2019-05-05T10:17:30.812Z,17.18
2019-05-05T10:18:16.622Z,17.72
2019-05-05T10:19:16.446Z,18.05
2019-05-05T10:20:17.110Z,18.2
2019-05-05T10:21:20.295Z,18.62
2019-05-05T10:22:17.314Z,17.52
2019-05-05T10:23:16.759Z,17.33
2019-05-05T10:24:33.928Z,16.68
2019-05-05T10:25:16.350Z,16.68
2019-05-05T10:26:17.435Z,16.71
2019-05-05T10:27:16.391Z,16.6
2019-05-05T10:28:18.293Z,16.78
2019-05-05T10:29:18.442Z,16.85
2019-05-05T10:30:16.744Z,17.18
2019-05-05T10:31:18.519Z,16.88
2019-05-05T10:32:32.911Z,16.34
2019-05-05T10:33:18.968Z,16.25
2019-05-05T10:34:18.364Z,16.61
2019-05-05T10:36:18.591Z,16.34
2019-05-05T10:37:31.304Z,16.24
2019-05-05T10:38:19.021Z,16.31
2019-05-05T10:39:16.696Z,16.53
2019-05-05T10:40:16.712Z,16.7
2019-05-05T10:41:18.324Z,16.35
2019-05-05T10:42:18.997Z,15.5
2019-05-05T10:43:17.322Z,14.94
2019-05-05T10:45:18.369Z,14.8
2019-05-05T10:46:19.113Z,14.64
2019-05-05T10:47:18.549Z,14.57
2019-05-05T10:48:19.155Z,14.62
2019-05-05T10:49:18.543Z,14.72
2019-05-05T10:50:18.728Z,14.46
2019-05-05T10:51:16.979Z,14.1
2019-05-05T10:52:19.073Z,13.96
2019-05-05T10:53:31.694Z,13.95
2019-05-05T10:54:18.956Z,14.29
2019-05-05T10:55:19.293Z,14.7
2019-05-05T10:56:18.311Z,14.5
2019-05-05T10:57:20.617Z,14.37
2019-05-05T10:58:18.653Z,14.5
2019-05-05T10:59:17.173Z,14.6
2019-05-05T11:00:20.206Z,14.61
2019-05-05T11:01:19.242Z,14.51
2019-05-05T11:02:18.923Z,14.65
2019-05-05T11:03:19.564Z,14.62
2019-05-05T11:04:18.429Z,14.64
2019-05-05T11:05:17.319Z,14.35
2019-05-05T11:06:33.169Z,14.35
2019-05-05T11:07:19.408Z,14.4
2019-05-05T11:09:33.687Z,14.61
2019-05-05T11:11:18.524Z,14.33
2019-05-05T11:12:19.147Z,14.1
2019-05-05T11:13:17.612Z,14.04
2019-05-05T11:15:19.031Z,14.18
2019-05-05T11:16:19.345Z,14.51
2019-05-05T11:17:19.312Z,14.92
2019-05-05T11:18:19.495Z,15.35
2019-05-05T11:19:18.513Z,15.39
2019-05-05T11:20:19.270Z,15.69
2019-05-05T11:21:19.310Z,15.87
2019-05-05T11:22:19.575Z,16.35
2019-05-05T11:23:19.855Z,16.38
2019-05-05T11:24:19.471Z,16.64
2019-05-05T11:25:33.692Z,16.48
2019-05-05T11:26:19.129Z,16.5
2019-05-05T11:27:17.580Z,16.35
2019-05-05T11:28:17.859Z,16.01
2019-05-05T11:29:18.430Z,16.24
2019-05-05T11:30:19.149Z,16.53
2019-05-05T11:31:18.537Z,16.73
2019-05-05T11:32:34.789Z,16.94
2019-05-05T11:33:19.091Z,17.26
2019-05-05T11:34:18.916Z,17.4
2019-05-05T11:35:18.737Z,17.25
2019-05-05T11:36:18.476Z,16.86
2019-05-05T11:38:18.998Z,16.09
2019-05-05T11:39:19.659Z,15.83
2019-05-05T11:40:32.795Z,15.72
2019-05-05T11:42:34.318Z,15.59
2019-05-05T11:44:20.036Z,15.87
2019-05-05T11:45:19.705Z,15.38
2019-05-05T11:46:18.952Z,15.27
2019-05-05T11:47:18.574Z,15.14
2019-05-05T11:48:34.506Z,15.46
2019-05-05T11:49:18.824Z,15.44
2019-05-05T11:50:34.180Z,15.62
2019-05-05T11:51:19.963Z,15.67
2019-05-05T11:52:18.163Z,15.82
2019-05-05T11:53:19.385Z,16.09
2019-05-05T11:54:18.922Z,16.11
2019-05-05T11:55:19.869Z,16.05
2019-05-05T11:56:19.451Z,15.8
2019-05-05T11:57:18.027Z,15.64
2019-05-05T11:58:19.260Z,16
2019-05-05T11:59:19.255Z,16.23
2019-05-05T12:00:18.990Z,16.57
2019-05-05T12:01:18.829Z,17.03
2019-05-05T12:02:18.881Z,17.34
2019-05-05T12:03:19.323Z,17.3
2019-05-05T12:04:19.428Z,17.38
2019-05-05T12:05:18.927Z,17.07
2019-05-05T12:06:19.583Z,16.85
2019-05-05T12:07:19.217Z,16.21
2019-05-05T12:08:19.522Z,15.51
2019-05-05T12:09:18.872Z,15.1
2019-05-05T12:10:18.834Z,14.98
2019-05-05T12:11:19.900Z,15.44
2019-05-05T12:12:33.694Z,15.8
2019-05-05T12:13:19.629Z,15.9
2019-05-05T12:14:33.854Z,16.27
2019-05-05T12:16:18.728Z,16.48
2019-05-05T12:17:18.993Z,16.48
2019-05-05T12:18:19.277Z,16.31
2019-05-05T12:20:19.071Z,16.08
2019-05-05T12:21:19.094Z,16.01
2019-05-05T12:23:19.135Z,15.57
2019-05-05T12:24:19.199Z,15.53
2019-05-05T12:25:32.441Z,15.65
2019-05-05T12:26:19.231Z,15.72
2019-05-05T12:27:18.729Z,15.71
2019-05-05T12:28:34.621Z,15.67
2019-05-05T12:29:19.275Z,15.6
2019-05-05T12:30:19.304Z,15.76
2019-05-05T12:31:19.317Z,15.65
2019-05-05T12:32:34.770Z,15.56
2019-05-05T12:33:19.362Z,15.86
2019-05-05T12:34:19.386Z,15.57
2019-05-05T12:35:19.671Z,15.46
2019-05-05T12:36:34.613Z,15.25
2019-05-05T12:39:19.501Z,15.67
2019-05-05T12:40:19.526Z,16.27
2019-05-05T12:41:20.983Z,16.45
2019-05-05T12:42:19.320Z,16.85
2019-05-05T12:43:19.596Z,16.53
2019-05-05T12:44:36.453Z,16.66
2019-05-05T12:45:19.699Z,16.94
2019-05-05T12:46:19.659Z,17.15
2019-05-05T12:47:19.686Z,17.3
2019-05-05T12:48:19.706Z,17.4
2019-05-05T12:49:22.481Z,17.3
2019-05-05T12:50:19.507Z,17.34
2019-05-05T12:51:19.784Z,17.26
2019-05-05T12:52:19.802Z,17.23
2019-05-05T12:53:19.826Z,17.01
2019-05-05T12:54:34.519Z,16.3
2019-05-05T12:55:19.868Z,16.14
2019-05-05T12:56:34.557Z,15.94
2019-05-05T12:58:19.942Z,16.02
2019-05-05T12:59:19.964Z,15.96
2019-05-05T13:00:34.650Z,16.05
2019-05-05T13:01:20.009Z,15.68
2019-05-05T13:02:19.541Z,15.02
2019-05-05T13:03:20.057Z,15.1
2019-05-05T13:04:20.090Z,15.28
2019-05-05T13:05:20.100Z,14.72
2019-05-05T13:06:20.125Z,14.33
2019-05-05T13:07:20.154Z,14.12
2019-05-05T13:08:20.187Z,14.21
2019-05-05T13:09:20.201Z,14.4
2019-05-05T13:12:34.927Z,14.92
2019-05-05T13:13:20.286Z,15.21
2019-05-05T13:14:20.308Z,15.1
2019-05-05T13:15:36.387Z,14.98
2019-05-05T13:16:22.467Z,14.84
2019-05-05T13:18:20.409Z,14.94
2019-05-05T13:20:20.460Z,14.81
2019-05-05T13:21:20.467Z,15.03
2019-05-05T13:22:20.492Z,14.98
2019-05-05T13:23:20.516Z,14.91
2019-05-05T13:24:20.637Z,14.8
2019-05-05T13:25:35.225Z,14.5
2019-05-05T13:26:20.606Z,14.54
2019-05-05T13:27:27.178Z,14.6
2019-05-05T13:28:20.631Z,14.42
2019-05-05T13:29:20.658Z,14.5
2019-05-05T13:30:20.673Z,14.43
2019-05-05T13:31:21.827Z,14.46
2019-05-05T13:32:20.467Z,14.51
2019-05-05T13:33:20.739Z,14.33
2019-05-05T13:34:20.772Z,14.12
2019-05-05T13:35:20.794Z,13.91
2019-05-05T13:36:20.807Z,13.64
2019-05-05T13:37:20.830Z,13.67
2019-05-05T13:38:20.857Z,13.7
2019-05-05T13:39:35.543Z,13.87
2019-05-05T13:40:35.563Z,13.88
2019-05-05T13:41:20.918Z,14.07
2019-05-05T13:42:20.444Z,14.22
2019-05-05T13:43:20.963Z,14.46
2019-05-05T13:44:20.990Z,14.92
2019-05-05T13:45:21.007Z,15.02
2019-05-05T13:46:21.031Z,14.54
2019-05-05T13:47:36.886Z,14.65
2019-05-05T13:48:21.076Z,14.61
2019-05-05T13:50:21.119Z,15.29
2019-05-05T13:51:21.143Z,15.59
2019-05-05T13:53:21.185Z,15.57
2019-05-05T13:55:21.230Z,15.49
2019-05-05T13:56:21.255Z,15.19
2019-05-05T13:57:21.029Z,15.09
2019-05-05T13:58:21.302Z,14.99
2019-05-05T13:59:21.420Z,14.89
2019-05-05T14:00:21.352Z,15.02
2019-05-05T14:01:23.513Z,14.89
2019-05-05T14:02:21.388Z,15.01
2019-05-05T14:03:36.711Z,14.96
2019-05-05T14:04:21.431Z,14.91
2019-05-05T14:05:21.457Z,14.84
2019-05-05T14:06:21.475Z,14.7
2019-05-05T14:07:21.250Z,14.68
2019-05-05T14:08:23.547Z,14.6
2019-05-05T14:09:21.554Z,14.47